createdAt,value
2022-09-05T00:00:03.159Z,13.42
2022-09-05T00:02:49.539Z,13.42
2022-09-05T00:05:26.194Z,13.43
2022-09-05T00:08:02.365Z,13.34
2022-09-05T00:11:12.775Z,13.27
2022-09-05T00:13:36.464Z,13.35
2022-09-05T00:16:30.155Z,13.35
2022-09-05T00:24:18.693Z,13.25
2022-09-05T00:24:34.657Z,13.19
2022-09-05T00:25:28.223Z,13.19
2022-09-05T00:28:25.131Z,12.82
2022-09-05T00:31:54.043Z,13.15
2022-09-05T00:34:18.552Z,13.02
2022-09-05T00:36:48.546Z,13.08
2022-09-05T00:39:21.065Z,13.10
2022-09-05T00:41:50.607Z,13.10
2022-09-05T00:44:23.491Z,13.08
2022-09-05T00:46:59.516Z,13.06
2022-09-05T00:49:37.152Z,13.08
2022-09-05T00:52:13.041Z,13.01
2022-09-05T00:55:08.802Z,12.96
2022-09-05T00:58:12.174Z,12.90
2022-09-05T01:00:52.961Z,12.86
2022-09-05T01:03:33.798Z,12.90
2022-09-05T01:06:18.325Z,12.87
2022-09-05T01:09:08.197Z,12.86
2022-09-05T01:11:46.511Z,12.61
2022-09-05T01:14:28.857Z,12.80
2022-09-05T01:17:16.057Z,12.65
2022-09-05T01:20:04.783Z,12.65
2022-09-05T01:23:10.258Z,12.65
2022-09-05T01:25:54.889Z,12.62
2022-09-05T01:29:16.678Z,12.63
2022-09-05T01:31:28.993Z,12.53
2022-09-05T01:34:06.769Z,12.41
2022-09-05T01:36:55.692Z,12.43
2022-09-05T01:40:15.354Z,12.42
2022-09-05T01:42:37.990Z,12.51
2022-09-05T01:45:16.035Z,12.52
2022-09-05T01:47:52.921Z,12.44
2022-09-05T01:50:35.573Z,11.92
2022-09-05T01:53:26.439Z,12.42
2022-09-05T01:56:10.069Z,12.36
2022-09-05T01:58:50.533Z,12.30
2022-09-05T02:01:32.899Z,12.23
2022-09-05T02:04:23.871Z,12.33
2022-09-05T02:07:19.424Z,12.42
2022-09-05T02:10:17.223Z,12.36
2022-09-05T02:12:54.448Z,12.12
2022-09-05T02:15:41.941Z,12.29
2022-09-05T02:18:23.389Z,12.24
2022-09-05T02:20:57.846Z,11.85
2022-09-05T02:23:41.581Z,12.25
2022-09-05T02:26:18.514Z,12.19
2022-09-05T02:28:53.918Z,12.12
2022-09-05T02:31:28.343Z,12.10
2022-09-05T02:34:01.886Z,12.03
2022-09-05T02:36:40.814Z,12.11
2022-09-05T02:45:01.726Z,12.18
2022-09-05T02:45:15.329Z,12.02
2022-09-05T02:45:31.113Z,11.93
2022-09-05T02:48:14.829Z,12.09
2022-09-05T02:57:29.199Z,12.15
2022-09-05T02:57:34.739Z,12.07
2022-09-05T02:57:38.557Z,12.02
2022-09-05T02:59:49.604Z,12.00
2022-09-05T03:02:27.641Z,11.90
2022-09-05T03:05:05.420Z,12.02
2022-09-05T03:08:09.116Z,12.06
2022-09-05T03:11:05.026Z,11.93
2022-09-05T03:13:54.386Z,12.03
2022-09-05T03:17:26.794Z,11.98
2022-09-05T03:20:38.985Z,11.81
2022-09-05T03:23:33.182Z,11.95
2022-09-05T03:26:33.711Z,11.84
2022-09-05T03:29:30.517Z,11.69
2022-09-05T03:32:42.106Z,11.84
2022-09-05T03:35:56.350Z,11.78
2022-09-05T03:39:02.483Z,11.76
2022-09-05T03:41:49.263Z,11.83
2022-09-05T03:44:41.440Z,11.71
2022-09-05T03:47:22.249Z,11.76
2022-09-05T03:56:20.281Z,11.69
2022-09-05T03:57:19.945Z,11.58
2022-09-05T03:57:28.164Z,11.75
2022-09-05T04:00:08.656Z,11.69
2022-09-05T04:08:09.003Z,11.70
2022-09-05T04:08:16.191Z,11.68
2022-09-05T04:08:48.925Z,11.64
2022-09-05T04:11:20.112Z,11.61
2022-09-05T04:13:52.497Z,11.62
2022-09-05T04:16:26.325Z,11.37
2022-09-05T04:18:57.810Z,11.46
2022-09-05T04:21:30.523Z,11.39
2022-09-05T04:24:07.205Z,11.11
2022-09-05T04:27:00.995Z,11.46
2022-09-05T04:29:42.757Z,11.38
2022-09-05T04:32:24.866Z,11.44
2022-09-05T04:35:23.589Z,11.47
2022-09-05T04:37:58.710Z,11.45
2022-09-05T04:40:40.109Z,11.50
2022-09-05T04:43:11.415Z,11.47
2022-09-05T04:45:42.969Z,11.36
2022-09-05T04:48:21.350Z,11.47
2022-09-05T04:51:11.699Z,11.51
2022-09-05T04:54:00.471Z,11.54
2022-09-05T04:56:32.238Z,11.50
2022-09-05T05:01:36.543Z,11.49
2022-09-05T05:06:02.698Z,11.46
2022-09-05T05:06:14.276Z,11.40
2022-09-05T05:07:42.028Z,11.48
2022-09-05T05:13:55.327Z,11.40
2022-09-05T05:18:07.470Z,11.39
2022-09-05T05:18:11.990Z,11.48
2022-09-05T05:19:18.860Z,11.50
2022-09-05T05:21:51.822Z,11.47
2022-09-05T05:24:24.946Z,11.54
2022-09-05T05:26:59.741Z,11.61
2022-09-05T05:29:38.171Z,11.43
2022-09-05T05:32:08.294Z,11.70
2022-09-05T05:34:42.727Z,11.72
2022-09-05T05:37:20.084Z,11.74
2022-09-05T05:39:59.309Z,11.81
2022-09-05T05:42:27.224Z,11.85
2022-09-05T05:44:58.429Z,12.05
2022-09-05T05:47:32.110Z,12.07
2022-09-05T11:54:57.815Z,22.73
2022-09-05T11:57:38.718Z,22.61
2022-09-05T12:00:31.091Z,22.62
2022-09-05T12:03:58.175Z,22.59
2022-09-05T12:06:49.535Z,22.70
2022-09-05T12:09:34.447Z,22.42
2022-09-05T12:12:38.527Z,21.95
2022-09-05T12:15:26.272Z,22.27
2022-09-05T12:18:27.023Z,22.47
2022-09-05T12:21:17.476Z,22.47
2022-09-05T12:24:26.364Z,22.37
2022-09-05T12:27:39.426Z,22.42
2022-09-05T12:34:35.611Z,22.42
2022-09-05T12:36:04.558Z,22.46
2022-09-05T12:41:32.538Z,22.45
2022-09-05T12:42:09.539Z,22.57
2022-09-05T12:42:10.927Z,22.56
2022-09-05T12:45:09.045Z,22.58
2022-09-05T12:47:59.540Z,22.63
2022-09-05T12:50:35.275Z,22.61
2022-09-05T12:53:08.965Z,22.18
2022-09-05T12:55:41.567Z,22.44
2022-09-05T13:02:57.756Z,22.48
2022-09-05T13:03:06.703Z,22.63
2022-09-05T13:04:26.589Z,22.32
2022-09-05T13:07:05.602Z,22.37
2022-09-05T13:10:04.711Z,22.37
2022-09-05T13:14:53.958Z,22.25
2022-09-05T13:15:27.003Z,22.35
2022-09-05T13:18:02.771Z,22.52
2022-09-05T13:20:36.776Z,22.47
2022-09-05T13:23:21.797Z,22.39
2022-09-05T13:25:58.382Z,22.56
2022-09-05T13:28:30.297Z,22.44
2022-09-05T13:33:40.146Z,22.47
2022-09-05T13:37:59.532Z,22.34
2022-09-05T13:38:10.026Z,22.62
2022-09-05T13:39:48.985Z,22.64
2022-09-05T13:42:20.761Z,22.11
2022-09-05T13:44:53.894Z,21.89
2022-09-05T13:47:41.107Z,22.27
2022-09-05T13:50:23.082Z,22.09
2022-09-05T13:52:56.571Z,22.58
2022-09-05T13:55:33.453Z,22.48
2022-09-05T13:58:07.360Z,22.62
2022-09-05T14:01:17.504Z,22.88
2022-09-05T14:07:45.082Z,22.46
2022-09-05T14:10:43.517Z,22.59
2022-09-05T14:13:18.842Z,22.48
2022-09-05T14:15:53.164Z,22.04
2022-09-05T14:18:24.119Z,22.60
2022-09-05T14:21:15.724Z,22.40
2022-09-05T14:23:53.507Z,22.57
2022-09-05T14:26:28.092Z,22.60
2022-09-05T14:29:05.973Z,22.66
2022-09-05T14:37:39.989Z,22.59
2022-09-05T14:37:49.417Z,22.60
2022-09-05T14:38:14.657Z,22.48
2022-09-05T14:41:07.422Z,22.76
2022-09-05T14:44:11.081Z,22.74
2022-09-05T14:47:05.008Z,22.57
2022-09-05T14:50:07.167Z,22.64
2022-09-05T14:52:43.505Z,22.56
2022-09-05T15:02:44.208Z,22.43
2022-09-05T15:02:57.692Z,22.41
2022-09-05T15:06:34.495Z,22.22
2022-09-05T15:12:18.206Z,22.43
2022-09-05T15:12:23.001Z,22.59
2022-09-05T15:14:52.338Z,22.67
2022-09-05T15:17:24.226Z,22.22
2022-09-05T15:20:06.638Z,22.74
2022-09-05T15:22:37.434Z,22.76
2022-09-05T15:25:18.106Z,22.55
2022-09-05T15:27:46.603Z,22.45
2022-09-05T15:30:21.626Z,22.63
2022-09-05T15:32:50.809Z,22.64
2022-09-05T15:35:36.563Z,22.83
2022-09-05T15:38:55.247Z,22.92
2022-09-05T15:41:25.632Z,22.86
2022-09-05T15:44:03.279Z,22.92
2022-09-05T15:46:51.312Z,23.05
2022-09-05T15:49:28.270Z,22.84
2022-09-05T15:51:58.255Z,22.89
2022-09-05T15:54:37.684Z,22.94
2022-09-05T15:57:15.281Z,22.82
2022-09-05T15:59:48.155Z,22.90
2022-09-05T16:02:21.706Z,22.91
2022-09-05T16:08:21.758Z,22.71
2022-09-05T16:10:40.811Z,22.84
2022-09-05T16:11:18.726Z,22.71
2022-09-05T16:13:39.691Z,22.21
2022-09-05T16:23:28.821Z,22.64
2022-09-05T16:23:28.979Z,22.71
2022-09-05T16:23:30.083Z,22.29
2022-09-05T16:24:59.506Z,22.38
2022-09-05T16:27:49.739Z,22.37
2022-09-05T16:30:22.982Z,22.43
2022-09-05T16:32:55.007Z,22.00
2022-09-05T16:35:26.692Z,22.06
2022-09-05T16:38:02.100Z,22.48
2022-09-05T16:40:32.591Z,22.18
2022-09-05T16:43:10.033Z,22.24
2022-09-05T16:45:45.576Z,22.35
2022-09-05T16:48:28.094Z,22.21
2022-09-05T16:51:15.194Z,21.69
2022-09-05T16:53:57.976Z,22.19
2022-09-05T16:56:31.749Z,22.22
2022-09-05T16:59:03.824Z,22.10
2022-09-05T17:02:05.691Z,22.05
2022-09-05T17:05:03.099Z,22.19
2022-09-05T17:07:51.664Z,22.11
2022-09-05T17:10:24.235Z,22.01
2022-09-05T17:12:52.523Z,21.89
2022-09-05T17:15:23.549Z,21.61
2022-09-05T17:18:21.558Z,21.59
2022-09-05T17:20:49.505Z,21.50
2022-09-05T17:27:08.330Z,21.56
2022-09-05T17:29:27.747Z,21.25
2022-09-05T17:29:42.214Z,21.33
2022-09-05T17:32:00.166Z,21.24
2022-09-05T17:34:46.722Z,20.98
2022-09-05T17:37:42.852Z,21.00
2022-09-05T17:40:37.982Z,20.62
2022-09-05T17:43:10.863Z,20.39
2022-09-05T17:45:53.257Z,20.50
2022-09-05T17:49:16.192Z,20.42
2022-09-05T17:52:20.573Z,20.30
2022-09-05T17:54:52.222Z,20.17
2022-09-05T17:57:41.070Z,20.14
2022-09-05T18:00:47.278Z,20.00
2022-09-05T18:04:17.024Z,19.92
2022-09-05T18:07:00.494Z,19.75
2022-09-05T18:10:12.938Z,19.69
2022-09-05T18:13:14.182Z,19.65
2022-09-05T18:16:11.996Z,19.54
2022-09-05T18:19:32.159Z,19.46
2022-09-05T18:21:48.457Z,19.25
2022-09-05T18:24:24.730Z,19.34
2022-09-05T18:27:43.918Z,19.29
2022-09-05T18:30:07.926Z,19.19
2022-09-05T18:32:42.027Z,19.14
2022-09-05T18:35:32.437Z,19.12
2022-09-05T18:38:51.641Z,19.06
2022-09-05T18:41:23.156Z,19.04
2022-09-05T18:44:13.851Z,18.91
2022-09-05T18:46:49.130Z,18.79
2022-09-05T18:50:25.090Z,18.90
2022-09-05T18:52:23.345Z,18.81
2022-09-05T18:56:09.147Z,18.70
2022-09-05T18:57:51.777Z,18.70
2022-09-05T19:00:43.933Z,18.63
2022-09-05T19:03:24.967Z,18.45
2022-09-05T19:06:00.555Z,18.50
2022-09-05T19:08:48.708Z,18.51
2022-09-05T19:11:28.932Z,18.38
2022-09-05T19:14:25.776Z,18.40
2022-09-05T19:16:49.652Z,18.38
2022-09-05T19:19:24.768Z,18.35
2022-09-05T19:22:10.419Z,18.33
2022-09-05T19:24:45.629Z,18.31
2022-09-05T19:29:00.035Z,18.16
2022-09-05T19:36:48.762Z,18.08
2022-09-05T19:36:51.696Z,18.07
2022-09-05T19:37:22.779Z,17.98
2022-09-05T19:38:42.119Z,18.00
2022-09-05T19:47:26.966Z,17.78
2022-09-05T19:47:38.546Z,17.96
2022-09-05T19:47:49.802Z,17.84
2022-09-05T19:50:11.870Z,17.79
2022-09-05T19:52:41.276Z,17.79
2022-09-05T19:55:21.878Z,17.76
2022-09-05T19:57:52.733Z,17.48
2022-09-05T20:00:42.485Z,17.65
2022-09-05T20:03:23.541Z,17.52
2022-09-05T20:05:52.013Z,17.51
2022-09-05T20:08:33.677Z,17.47
2022-09-05T20:11:02.475Z,17.37
2022-09-05T20:13:30.160Z,17.47
2022-09-05T20:16:01.235Z,17.45
2022-09-05T20:18:44.044Z,17.35
2022-09-05T20:21:13.875Z,17.31
2022-09-05T20:23:49.139Z,17.38
2022-09-05T20:26:18.402Z,17.30
2022-09-05T20:28:52.728Z,17.28
2022-09-05T20:31:28.294Z,16.98
2022-09-05T20:34:27.548Z,17.09
2022-09-05T20:43:14.456Z,17.07
2022-09-05T20:43:29.407Z,16.95
2022-09-05T20:43:29.713Z,16.96
2022-09-05T20:45:46.276Z,16.86
2022-09-05T20:54:08.194Z,16.87
2022-09-05T20:54:19.246Z,16.81
2022-09-05T20:54:31.784Z,16.75
2022-09-05T20:56:57.802Z,16.84
2022-09-05T20:59:31.816Z,16.76
2022-09-05T21:02:01.475Z,16.77
2022-09-05T21:04:32.994Z,16.74
2022-09-05T21:07:13.304Z,16.67
2022-09-05T21:09:56.080Z,16.63
2022-09-05T21:12:28.436Z,16.61
2022-09-05T21:15:28.359Z,16.56
2022-09-05T21:18:03.497Z,16.39
2022-09-05T21:20:33.196Z,16.57
2022-09-05T21:23:00.985Z,16.60
2022-09-05T21:25:43.786Z,16.62
2022-09-05T21:28:36.636Z,16.23
2022-09-05T21:31:10.592Z,16.49
2022-09-05T21:33:45.880Z,16.50
2022-09-05T21:36:15.926Z,16.44
2022-09-05T21:38:44.467Z,16.48
2022-09-05T21:41:14.398Z,16.11
2022-09-05T21:47:37.836Z,16.39
2022-09-05T21:47:47.917Z,16.30
2022-09-05T21:49:23.267Z,16.27
2022-09-05T21:51:51.780Z,16.23
2022-09-05T21:57:16.891Z,16.16
2022-09-05T21:59:19.176Z,16.11
2022-09-05T22:00:10.953Z,15.96
2022-09-05T22:02:49.623Z,15.98
2022-09-05T22:05:17.849Z,16.10
2022-09-05T22:07:45.582Z,16.00
2022-09-05T22:10:13.260Z,15.98
2022-09-05T22:12:41.004Z,15.96
2022-09-05T22:15:28.547Z,15.86
2022-09-05T22:18:16.648Z,15.44
2022-09-05T22:20:51.795Z,15.85
2022-09-05T22:23:39.459Z,15.81
2022-09-05T22:26:07.736Z,15.72
2022-09-05T22:28:38.802Z,15.77
2022-09-05T22:31:08.663Z,15.77
2022-09-05T22:33:36.569Z,15.81
2022-09-05T22:36:04.328Z,15.81
2022-09-05T22:38:32.534Z,15.77
2022-09-05T22:41:00.284Z,15.64
2022-09-05T22:43:28.147Z,15.49
2022-09-05T22:45:56.519Z,15.54
2022-09-05T22:48:25.664Z,15.57
2022-09-05T22:50:53.430Z,15.55
2022-09-05T22:53:21.330Z,15.49
2022-09-05T22:55:57.406Z,15.47
2022-09-05T22:58:25.334Z,15.41
2022-09-05T23:00:53.369Z,15.14
2022-09-05T23:03:21.300Z,15.34
2022-09-05T23:05:50.324Z,15.39
2022-09-05T23:08:18.049Z,15.35
2022-09-05T23:10:45.705Z,15.30
2022-09-05T23:13:13.572Z,15.27
2022-09-05T23:15:41.403Z,15.18
2022-09-05T23:18:09.104Z,15.32
2022-09-05T23:20:36.805Z,15.21
2022-09-05T23:23:07.427Z,15.29
2022-09-05T23:25:36.198Z,15.15
2022-09-05T23:28:06.645Z,15.13
2022-09-05T23:30:34.615Z,15.03
2022-09-05T23:33:02.300Z,15.09
2022-09-05T23:35:30.391Z,15.11
2022-09-05T23:37:58.045Z,14.98
2022-09-05T23:40:27.216Z,15.02
2022-09-05T23:42:56.537Z,15.01
2022-09-05T23:45:24.890Z,14.90
2022-09-05T23:47:52.820Z,14.92
